Time;durP1;ratioP1;P1;durP2;ratioP2;P2;SDS_P1;SDS_P2;PMS_P1;PMS_P2;Temp;Humidity;BMP_temperature;BMP_pressure;BME280_temperature;BME280_humidity;BME280_pressure;Samples;Min_cycle;Max_cycle;Signal;HPM_P1;HPM_P2
2022/11/02 00:01:07;;;;;;;3.50;1.58;;;13.30;99.90;;;;;;5047562;28;20055;-66
2022/11/02 00:03:32;;;;;;;8.57;1.52;;;13.20;99.90;;;;;;5052626;28;20517;-66
2022/11/02 00:05:58;;;;;;;7.55;1.80;;;13.10;99.90;;;;;;5052379;28;20037;-66
2022/11/02 00:08:23;;;;;;;6.10;1.67;;;13.10;99.90;;;;;;5051898;28;20119;-66
2022/11/02 00:10:49;;;;;;;8.80;1.40;;;13.10;99.90;;;;;;5048092;28;20120;-66
2022/11/02 00:13:14;;;;;;;6.22;1.88;;;13.10;99.90;;;;;;5052441;28;20037;-66
2022/11/02 00:15:40;;;;;;;5.00;1.45;;;13.10;99.90;;;;;;5052242;28;20416;-66
2022/11/02 00:18:10;;;;;;;5.65;1.25;;;13.00;99.90;;;;;;5052726;28;20033;-66
2022/11/02 00:20:38;;;;;;;4.32;1.40;;;13.00;99.90;;;;;;5052402;28;20044;-66
2022/11/02 00:23:06;;;;;;;7.03;1.50;;;13.00;99.90;;;;;;5052676;28;20116;-66
2022/11/02 00:25:32;;;;;;;5.03;1.33;;;13.00;99.90;;;;;;5051946;28;20045;-66
2022/11/02 00:27:57;;;;;;;4.38;1.45;;;12.90;99.90;;;;;;5052069;28;20525;-66
2022/11/02 00:30:23;;;;;;;6.72;1.42;;;12.90;99.90;;;;;;5052301;28;20116;-66
2022/11/02 00:32:49;;;;;;;9.75;1.80;;;12.80;99.90;;;;;;5052377;28;20045;-66
2022/11/02 00:35:15;;;;;;;5.18;1.40;;;12.80;99.90;;;;;;5050913;28;20037;-66
2022/11/02 00:37:40;;;;;;;8.00;1.35;;;12.90;99.90;;;;;;5051424;28;20041;-66
2022/11/02 00:40:06;;;;;;;6.78;1.27;;;12.80;99.90;;;;;;5052183;28;20076;-66
2022/11/02 00:42:32;;;;;;;5.32;1.60;;;12.80;99.90;;;;;;5051965;28;20041;-66
2022/11/02 00:44:57;;;;;;;7.75;1.48;;;12.80;99.90;;;;;;5051916;28;20043;-66
2022/11/02 00:47:23;;;;;;;7.72;1.33;;;12.90;99.90;;;;;;5052022;28;20049;-66
2022/11/02 00:49:48;;;;;;;13.88;3.08;;;12.90;99.90;;;;;;5051984;28;20037;-66
2022/11/02 00:52:14;;;;;;;7.60;1.75;;;12.90;99.90;;;;;;5051606;28;20426;-66
2022/11/02 00:54:40;;;;;;;7.22;2.13;;;12.80;99.90;;;;;;5051561;28;20037;-66
2022/11/02 00:57:05;;;;;;;10.18;1.70;;;12.70;99.90;;;;;;5051519;28;20033;-66
2022/11/02 00:59:30;;;;;;;9.45;1.95;;;12.70;99.90;;;;;;5050359;28;20048;-66
2022/11/02 01:01:56;;;;;;;12.43;2.08;;;12.70;99.90;;;;;;5051923;28;20072;-66
2022/11/02 01:04:21;;;;;;;10.45;1.70;;;12.70;99.90;;;;;;5051441;28;20128;-67
2022/11/02 01:06:48;;;;;;;10.90;2.15;;;12.70;99.90;;;;;;5051630;28;20402;-66
2022/11/02 01:09:14;;;;;;;6.57;1.88;;;12.70;99.90;;;;;;5051329;28;20037;-66
2022/11/02 01:11:40;;;;;;;11.38;1.98;;;12.80;99.90;;;;;;5051507;28;20127;-67
2022/11/02 01:14:06;;;;;;;10.23;1.83;;;12.80;99.90;;;;;;5051192;28;20127;-68
2022/11/02 01:16:32;;;;;;;10.48;2.00;;;12.70;99.90;;;;;;5051355;28;20033;-67
2022/11/02 01:18:58;;;;;;;10.60;2.10;;;12.60;99.90;;;;;;5051377;28;20481;-67
2022/11/02 01:21:24;;;;;;;9.75;1.52;;;12.70;99.90;;;;;;5051172;28;20048;-67
2022/11/02 01:23:50;;;;;;;8.18;1.75;;;12.60;99.90;;;;;;5051138;28;20041;-67
2022/11/02 01:26:16;;;;;;;7.65;1.75;;;12.70;99.90;;;;;;5050916;28;20055;-67
2022/11/02 01:28:42;;;;;;;7.45;1.30;;;12.70;99.90;;;;;;5051165;28;20037;-67
2022/11/02 01:31:09;;;;;;;8.93;1.92;;;12.70;99.90;;;;;;5050914;28;20029;-67
2022/11/02 01:33:35;;;;;;;9.20;2.03;;;12.70;99.90;;;;;;5049854;28;20512;-67
2022/11/02 01:36:05;;;;;;;13.23;1.92;;;12.80;99.90;;;;;;5050740;28;20037;-66
2022/11/02 01:38:32;;;;;;;9.73;2.03;;;12.70;99.90;;;;;;5049586;28;20056;-67
2022/11/02 01:40:58;;;;;;;13.48;2.00;;;12.80;99.90;;;;;;5049764;28;20674;-67
2022/11/02 01:43:26;;;;;;;10.75;2.20;;;12.80;99.90;;;;;;5051063;28;20041;-67
2022/11/02 01:45:59;;;;;;;10.88;1.85;;;12.80;99.90;;;;;;5050799;28;20040;-67
2022/11/02 01:48:35;;;;;;;10.18;1.63;;;12.80;99.90;;;;;;5050766;28;20044;-67
2022/11/02 01:51:05;;;;;;;11.85;2.08;;;12.80;99.90;;;;;;5051095;28;20049;-66
2022/11/02 01:53:33;;;;;;;7.53;1.77;;;12.80;99.90;;;;;;5050950;28;20059;-66
2022/11/02 01:56:00;;;;;;;16.77;2.45;;;12.80;99.90;;;;;;5050471;28;20048;-66
2022/11/02 01:58:26;;;;;;;10.65;1.67;;;12.80;99.90;;;;;;5050622;28;20045;-66
2022/11/02 02:00:53;;;;;;;8.88;1.75;;;12.90;99.90;;;;;;5049441;28;20045;-66
2022/11/02 02:03:20;;;;;;;2.50;1.50;;;12.90;99.90;;;;;;5050550;28;20041;-66
2022/11/02 02:05:51;;;;;;;9.70;1.73;;;12.90;99.90;;;;;;5050218;28;20047;-67
2022/11/02 02:08:19;;;;;;;10.10;1.90;;;12.90;99.90;;;;;;5050577;28;20445;-67
2022/11/02 02:10:45;;;;;;;12.65;2.33;;;12.90;99.90;;;;;;5050761;28;20366;-66
2022/11/02 02:13:11;;;;;;;7.95;1.90;;;13.00;99.90;;;;;;5050492;28;20469;-66
2022/11/02 02:15:59;;;;;;;4.75;1.45;;;13.00;99.90;;;;;;5049418;28;20417;-66
2022/11/02 02:18:38;;;;;;;9.20;1.45;;;13.00;99.90;;;;;;5050690;28;20079;-66
2022/11/02 02:21:21;;;;;;;5.75;2.70;;;13.00;99.90;;;;;;5050757;28;20044;-66
2022/11/02 02:23:58;;;;;;;10.18;1.95;;;13.00;99.90;;;;;;5049278;28;20048;-66
2022/11/02 02:26:45;;;;;;;10.13;1.52;;;13.10;99.90;;;;;;5050804;28;20102;-67
2022/11/02 02:29:21;;;;;;;7.13;2.35;;;13.10;99.90;;;;;;5050192;28;20098;-66
2022/11/02 02:31:55;;;;;;;10.10;2.83;;;13.10;99.90;;;;;;5050710;28;20382;-67
2022/11/02 02:34:33;;;;;;;5.18;1.42;;;13.10;99.90;;;;;;5048767;28;20712;-68
2022/11/02 02:37:05;;;;;;;7.18;1.30;;;13.10;99.90;;;;;;5048999;28;20041;-71
2022/11/02 02:39:51;;;;;;;4.13;1.40;;;12.90;99.90;;;;;;5050161;28;20049;-70
2022/11/02 02:42:27;;;;;;;8.15;1.45;;;12.80;99.90;;;;;;5048955;28;20493;-68
2022/11/02 02:45:12;;;;;;;5.30;1.38;;;12.80;99.90;;;;;;5052641;28;20041;-68
2022/11/02 02:47:44;;;;;;;7.82;1.75;;;12.70;99.90;;;;;;5053007;28;20583;-68
2022/11/02 02:50:22;;;;;;;6.10;1.50;;;12.60;99.90;;;;;;5054075;28;20397;-68
2022/11/02 02:52:51;;;;;;;4.93;1.65;;;12.60;99.90;;;;;;5052626;28;20041;-68
2022/11/02 02:55:23;;;;;;;15.18;2.70;;;12.60;99.90;;;;;;5053736;28;20413;-68
2022/11/02 02:57:49;;;;;;;6.65;1.48;;;12.60;99.90;;;;;;5053797;28;20067;-68
2022/11/02 03:00:16;;;;;;;4.40;1.58;;;12.60;99.90;;;;;;5053640;28;20441;-67
2022/11/02 03:02:59;;;;;;;6.93;1.95;;;12.60;99.90;;;;;;5053971;28;20045;-67
2022/11/02 03:05:29;;;;;;;9.82;3.05;;;12.60;99.90;;;;;;5053792;28;20044;-68
2022/11/02 03:08:00;;;;;;;9.02;1.50;;;12.60;99.90;;;;;;5053664;28;20037;-67
2022/11/02 03:10:31;;;;;;;5.90;1.45;;;12.50;99.90;;;;;;5053798;28;20040;-67
2022/11/02 03:13:34;;;;;;;8.55;1.20;;;12.50;99.90;;;;;;5052301;28;20051;-67
2022/11/02 03:16:21;;;;;;;6.20;1.27;;;12.40;99.90;;;;;;5052163;28;20044;-67
2022/11/02 03:18:59;;;;;;;4.57;0.90;;;12.40;99.90;;;;;;5053401;28;20509;-67
2022/11/02 03:21:25;;;;;;;1.17;0.88;;;12.30;99.90;;;;;;5052630;28;20044;-67
2022/11/02 03:24:06;;;;;;;3.28;1.10;;;12.20;99.90;;;;;;5053058;28;20044;-67
2022/11/02 03:27:05;;;;;;;2.80;1.00;;;12.20;99.90;;;;;;5053773;28;20052;-67
2022/11/02 03:29:41;;;;;;;3.20;1.08;;;12.10;99.90;;;;;;5053341;28;20045;-67
2022/11/02 03:32:23;;;;;;;3.92;0.98;;;12.10;99.90;;;;;;5053249;28;20041;-67
2022/11/02 03:34:56;;;;;;;5.35;0.90;;;12.00;99.90;;;;;;5052970;28;20171;-67
2022/11/02 03:37:40;;;;;;;4.38;1.20;;;12.00;99.90;;;;;;5053446;28;20037;-67
2022/11/02 03:40:09;;;;;;;2.17;1.00;;;12.00;99.90;;;;;;5053241;28;20213;-67
2022/11/02 03:42:36;;;;;;;2.85;1.55;;;12.00;99.90;;;;;;5053372;28;20048;-67
2022/11/02 03:45:21;;;;;;;8.70;2.03;;;11.90;99.90;;;;;;5052986;28;20382;-67
2022/11/02 03:47:51;;;;;;;4.38;1.02;;;11.90;99.90;;;;;;5052782;28;20059;-67
2022/11/02 03:50:20;;;;;;;4.97;1.33;;;12.00;99.90;;;;;;5051445;28;20124;-67
2022/11/02 03:52:51;;;;;;;7.10;1.23;;;11.90;99.90;;;;;;5051589;28;20044;-67
2022/11/02 03:55:21;;;;;;;4.45;1.20;;;11.90;99.90;;;;;;5052363;28;20036;-67
2022/11/02 03:57:49;;;;;;;3.25;1.10;;;11.80;99.90;;;;;;5051513;28;20036;-67
2022/11/02 04:00:24;;;;;;;6.00;1.00;;;11.90;99.90;;;;;;5052521;28;20091;-67
2022/11/02 04:02:56;;;;;;;3.45;1.13;;;11.90;99.90;;;;;;5052705;28;20052;-67
2022/11/02 04:05:30;;;;;;;6.32;1.55;;;11.90;99.90;;;;;;5052511;28;20103;-67
2022/11/02 04:14:36;;;;;;;5.88;1.45;;;11.90;99.90;;;;;;5052534;28;20646;-67
2022/11/02 04:16:11;;;;;;;4.30;1.30;;;11.80;99.90;;;;;;5052479;28;20099;-67
2022/11/02 04:21:21;;;;;;;6.00;1.40;;;11.80;99.90;;;;;;5051203;28;20052;-66
2022/11/02 04:26:31;;;;;;;5.47;1.30;;;11.80;99.90;;;;;;5051304;28;20124;-67
2022/11/02 04:28:56;;;;;;;4.25;1.25;;;11.70;99.90;;;;;;5052258;28;20124;-66
2022/11/02 04:31:22;;;;;;;5.65;1.33;;;11.70;99.90;;;;;;5052436;28;20064;-67
2022/11/02 04:33:47;;;;;;;5.72;1.48;;;11.70;99.90;;;;;;5051859;28;20401;-67
2022/11/02 04:36:13;;;;;;;6.55;1.77;;;11.70;99.90;;;;;;5052153;28;20123;-67
2022/11/02 04:38:39;;;;;;;3.88;1.42;;;11.70;99.90;;;;;;5050743;28;20045;-67
2022/11/02 04:43:59;;;;;;;4.40;1.67;;;11.80;99.90;;;;;;5051890;28;20045;-67
2022/11/02 04:46:28;;;;;;;9.95;1.85;;;11.80;99.90;;;;;;5051769;28;20136;-67
2022/11/02 04:48:54;;;;;;;6.68;1.27;;;11.90;99.90;;;;;;5050626;28;20045;-67
2022/11/02 04:51:20;;;;;;;5.05;1.58;;;11.80;99.90;;;;;;5051385;28;20037;-66
2022/11/02 04:53:47;;;;;;;4.40;1.63;;;11.80;99.90;;;;;;5050205;28;20125;-67
2022/11/02 04:56:13;;;;;;;9.95;1.77;;;11.90;99.90;;;;;;5051749;28;20111;-66
2022/11/02 04:58:38;;;;;;;5.80;1.40;;;11.90;99.90;;;;;;5050075;28;20533;-66
2022/11/02 05:01:11;;;;;;;7.25;1.50;;;11.90;99.90;;;;;;5051759;28;20425;-66
2022/11/02 05:03:36;;;;;;;;;;;11.80;99.90;;;;;;5052054;28;20087;-67
2022/11/02 05:06:02;;;;;;;6.20;1.85;;;11.80;99.90;;;;;;5050437;28;19920;-67
2022/11/02 05:08:28;;;;;;;8.77;1.95;;;11.80;99.90;;;;;;5051544;28;20040;-66
2022/11/02 05:10:55;;;;;;;5.57;1.65;;;11.80;99.90;;;;;;5051640;28;20494;-67
2022/11/02 05:13:21;;;;;;;11.60;1.45;;;11.80;99.90;;;;;;5051456;28;20112;-67
2022/11/02 05:15:47;;;;;;;7.05;1.80;;;11.80;99.90;;;;;;5051419;28;20095;-67
2022/11/02 05:18:12;;;;;;;7.43;1.77;;;11.80;99.90;;;;;;5051231;28;20501;-67
2022/11/02 05:20:38;;;;;;;9.10;2.53;;;11.80;99.90;;;;;;5051212;28;20128;-67
2022/11/02 05:23:05;;;;;;;6.13;1.48;;;11.80;99.90;;;;;;5051351;28;20163;-66
2022/11/02 05:25:30;;;;;;;10.50;1.90;;;11.90;99.90;;;;;;5051166;28;20052;-66
2022/11/02 05:27:56;;;;;;;12.02;2.72;;;11.90;99.90;;;;;;5051102;28;20049;-66
2022/11/02 05:30:22;;;;;;;9.20;1.60;;;11.90;99.90;;;;;;5051109;28;20037;-66
2022/11/02 05:32:47;;;;;;;5.57;1.45;;;11.90;99.90;;;;;;5051060;28;20033;-67
2022/11/02 05:35:13;;;;;;;6.38;1.50;;;11.90;99.90;;;;;;5050890;28;20040;-67
2022/11/02 05:37:38;;;;;;;10.27;2.13;;;11.90;99.90;;;;;;5051080;28;20048;-66
2022/11/02 05:40:04;;;;;;;7.80;1.73;;;11.90;99.90;;;;;;5050936;28;20124;-67
2022/11/02 05:42:30;;;;;;;10.57;1.95;;;11.80;99.90;;;;;;5051212;28;20067;-67
2022/11/02 05:44:55;;;;;;;5.70;1.58;;;11.80;99.90;;;;;;5050774;28;20079;-68
2022/11/02 05:47:21;;;;;;;8.75;1.85;;;11.70;99.90;;;;;;5050947;28;20080;-67
2022/11/02 05:49:47;;;;;;;10.43;2.05;;;11.70;99.90;;;;;;5050491;28;20124;-68
2022/11/02 05:52:12;;;;;;;9.70;2.60;;;11.70;99.90;;;;;;5051049;28;20087;-69
2022/11/02 05:54:38;;;;;;;9.05;1.83;;;11.70;99.90;;;;;;5049205;28;20041;-69
2022/11/02 05:57:03;;;;;;;7.43;1.77;;;11.70;99.90;;;;;;5049765;28;20045;-69
2022/11/02 05:59:29;;;;;;;9.75;2.08;;;11.60;99.90;;;;;;5049332;28;20047;-69
2022/11/02 06:01:54;;;;;;;17.35;2.25;;;11.60;99.90;;;;;;5050999;28;20076;-69
2022/11/02 06:04:20;;;;;;;7.40;2.17;;;11.70;99.90;;;;;;5049352;28;20052;-71
2022/11/02 06:06:45;;;;;;;11.77;1.90;;;11.70;99.90;;;;;;5050622;28;20041;-73
2022/11/02 06:09:11;;;;;;;6.03;1.58;;;11.70;99.90;;;;;;5049490;28;20094;-73
2022/11/02 06:11:36;;;;;;;9.88;1.98;;;11.70;99.90;;;;;;5049228;28;20099;-72
2022/11/02 06:14:02;;;;;;;11.77;2.03;;;11.60;99.90;;;;;;5049183;28;20129;-69
2022/11/02 06:16:28;;;;;;;8.60;2.20;;;11.60;99.90;;;;;;5050578;28;20067;-69
2022/11/02 06:18:54;;;;;;;10.38;2.10;;;11.60;99.90;;;;;;5053133;28;20048;-69
2022/11/02 06:21:20;;;;;;;5.30;2.10;;;11.60;99.90;;;;;;5053343;28;20126;-69
2022/11/02 06:23:47;;;;;;;5.43;2.85;;;11.70;99.90;;;;;;5054511;28;20072;-69
2022/11/02 06:26:12;;;;;;;9.40;2.25;;;11.60;99.90;;;;;;5054670;28;20401;-69
2022/11/02 06:28:38;;;;;;;8.00;1.90;;;11.70;99.90;;;;;;5054105;28;20033;-69
2022/11/02 06:31:04;;;;;;;6.90;2.08;;;11.70;99.90;;;;;;5054552;28;20206;-73
2022/11/02 06:33:29;;;;;;;13.45;2.15;;;11.70;99.90;;;;;;5050825;28;20142;-72
2022/11/02 06:35:56;;;;;;;4.60;1.92;;;11.60;99.90;;;;;;5050122;28;20124;-69
2022/11/02 06:38:22;;;;;;;8.32;1.42;;;11.60;99.90;;;;;;5054498;28;20081;-69
2022/11/02 06:41:02;;;;;;;8.90;3.63;;;11.70;99.90;;;;;;5053223;28;20405;-69
2022/11/02 06:43:28;;;;;;;9.68;2.20;;;11.70;99.90;;;;;;5054445;28;20045;-69
2022/11/02 06:45:55;;;;;;;7.95;1.83;;;11.60;99.90;;;;;;5052808;28;20408;-69
2022/11/02 06:48:21;;;;;;;15.25;3.92;;;11.60;99.90;;;;;;5054320;28;20056;-69
2022/11/02 06:50:46;;;;;;;7.90;1.73;;;11.60;99.90;;;;;;5054308;28;20370;-69
2022/11/02 06:53:12;;;;;;;11.63;2.25;;;11.60;99.90;;;;;;5054422;28;20103;-69
2022/11/02 06:55:38;;;;;;;9.50;2.30;;;11.60;99.90;;;;;;5053963;28;20033;-68
2022/11/02 06:58:03;;;;;;;11.55;3.47;;;11.50;99.90;;;;;;5054024;28;20045;-68
2022/11/02 07:00:29;;;;;;;10.05;2.45;;;11.60;99.90;;;;;;5053847;28;20044;-68
2022/11/02 07:03:03;;;;;;;12.85;3.58;;;11.50;99.90;;;;;;5052578;28;20123;-68
2022/11/02 07:05:29;;;;;;;8.32;1.90;;;11.50;99.90;;;;;;5052287;28;20053;-68
2022/11/02 07:07:55;;;;;;;7.85;2.22;;;11.50;99.90;;;;;;5054083;28;20123;-68
2022/11/02 07:10:21;;;;;;;5.20;1.75;;;11.50;99.90;;;;;;5053975;28;20056;-68
2022/11/02 07:12:46;;;;;;;15.43;2.10;;;11.50;99.90;;;;;;5052499;28;20025;-68
2022/11/02 07:15:12;;;;;;;6.20;2.08;;;11.50;99.90;;;;;;5053366;28;20116;-68
2022/11/02 07:17:39;;;;;;;7.65;2.20;;;11.50;99.90;;;;;;5053869;28;20033;-68
2022/11/02 07:20:05;;;;;;;7.20;1.80;;;11.50;99.90;;;;;;5053782;28;20083;-68
2022/11/02 07:22:31;;;;;;;10.30;2.17;;;11.50;99.90;;;;;;5052164;28;20076;-68
2022/11/02 07:24:56;;;;;;;12.70;2.58;;;11.50;99.90;;;;;;5053398;28;20083;-68
2022/11/02 07:27:22;;;;;;;10.80;2.40;;;11.60;99.90;;;;;;5053744;28;20048;-68
2022/11/02 07:29:48;;;;;;;8.57;2.00;;;11.60;99.90;;;;;;5051167;28;20048;-68
2022/11/02 07:32:13;;;;;;;13.30;2.38;;;11.60;99.90;;;;;;5053419;28;20044;-68
2022/11/02 07:34:39;;;;;;;10.43;2.15;;;11.70;99.90;;;;;;5053256;28;20037;-68
2022/11/02 07:37:05;;;;;;;14.82;2.38;;;11.70;99.90;;;;;;5053522;28;20029;-68
2022/11/02 07:39:32;;;;;;;8.38;2.47;;;11.70;99.90;;;;;;5053272;28;20063;-68
2022/11/02 07:41:58;;;;;;;16.65;2.08;;;11.70;99.90;;;;;;5053427;28;20116;-68
2022/11/02 07:44:24;;;;;;;12.57;3.10;;;11.70;99.90;;;;;;5052719;28;20480;-68
2022/11/02 07:46:49;;;;;;;10.63;2.13;;;11.80;99.90;;;;;;5053213;28;20036;-68
2022/11/02 07:49:15;;;;;;;8.15;1.70;;;11.80;99.90;;;;;;5051541;28;20129;-68
2022/11/02 07:51:40;;;;;;;9.98;1.83;;;11.80;99.90;;;;;;5053085;28;20110;-68
2022/11/02 07:54:06;;;;;;;14.45;1.98;;;11.80;99.90;;;;;;5052735;28;20065;-68
2022/11/02 07:56:31;;;;;;;10.48;2.50;;;11.80;99.90;;;;;;5053052;28;20045;-68
2022/11/02 07:58:57;;;;;;;13.65;2.42;;;11.90;99.90;;;;;;5052673;28;20042;-68
2022/11/02 08:01:22;;;;;;;7.90;1.77;;;11.90;99.90;;;;;;5052847;28;20435;-68
2022/11/02 08:03:48;;;;;;;12.55;1.70;;;11.90;99.90;;;;;;5052835;28;20029;-68
2022/11/02 08:06:14;;;;;;;8.70;1.42;;;12.00;99.90;;;;;;5052914;28;20056;-68
2022/11/02 08:08:39;;;;;;;8.00;2.03;;;12.00;99.90;;;;;;5052794;28;20493;-68
2022/11/02 08:11:07;;;;;;;8.68;1.50;;;12.10;99.90;;;;;;5052575;28;20710;-67
2022/11/02 08:13:34;;;;;;;6.57;1.60;;;12.10;99.90;;;;;;5034735;28;20032;-67
2022/11/02 08:15:59;;;;;;;6.50;1.80;;;12.10;99.90;;;;;;5052522;28;20086;-68
2022/11/02 08:18:27;;;;;;;6.20;1.48;;;12.10;99.90;;;;;;5052394;28;20485;-68
2022/11/02 08:20:55;;;;;;;12.68;2.20;;;12.10;99.90;;;;;;5049429;28;20044;-65
2022/11/02 08:23:23;;;;;;;6.40;1.42;;;12.10;99.90;;;;;;5052302;28;20045;-65
2022/11/02 08:25:50;;;;;;;6.25;1.50;;;12.10;99.90;;;;;;5051554;28;20056;-65
2022/11/02 08:28:22;;;;;;;9.45;1.77;;;12.10;99.90;;;;;;5050129;28;20049;-65
2022/11/02 08:30:48;;;;;;;5.90;1.75;;;12.20;99.90;;;;;;5049800;28;20525;-65
2022/11/02 08:33:16;;;;;;;6.35;1.63;;;12.20;99.90;;;;;;5050420;28;20040;-65
2022/11/02 08:35:43;;;;;;;13.40;1.83;;;12.30;99.90;;;;;;5048675;28;20068;-65
2022/11/02 08:38:09;;;;;;;5.60;1.70;;;12.30;99.90;;;;;;5032160;28;20469;-66
2022/11/02 08:40:35;;;;;;;4.68;1.83;;;12.30;99.90;;;;;;5048617;28;20036;-68
2022/11/02 08:43:03;;;;;;;9.45;1.85;;;12.20;99.90;;;;;;5049065;28;20412;-69
2022/11/02 08:45:31;;;;;;;5.75;1.50;;;12.30;99.90;;;;;;5049602;28;20098;-69
2022/11/02 08:47:56;;;;;;;12.55;1.90;;;12.20;99.90;;;;;;5049672;28;20084;-69
2022/11/02 08:50:24;;;;;;;11.00;1.95;;;12.20;99.90;;;;;;5049995;28;20068;-69
2022/11/02 08:52:49;;;;;;;4.03;1.20;;;12.20;99.90;;;;;;5049716;28;20037;-69
2022/11/02 08:55:15;;;;;;;7.50;1.25;;;12.20;99.90;;;;;;5049586;28;20047;-69
2022/11/02 08:57:52;;;;;;;9.15;1.80;;;12.20;99.90;;;;;;5049715;28;20041;-68
2022/11/02 09:00:20;;;;;;;4.68;1.30;;;12.20;99.90;;;;;;5048609;28;20124;-71
2022/11/02 09:02:57;;;;;;;7.90;1.50;;;12.30;99.90;;;;;;5032706;28;20076;-72
2022/11/02 09:05:23;;;;;;;4.30;1.50;;;12.30;99.90;;;;;;5049614;28;20037;-72
2022/11/02 09:07:54;;;;;;;10.68;1.42;;;12.30;99.90;;;;;;5049793;28;20053;-72
2022/11/02 09:10:19;;;;;;;10.15;1.67;;;12.30;99.90;;;;;;5049205;28;20049;-71
2022/11/02 09:12:45;;;;;;;4.85;1.65;;;12.30;99.90;;;;;;5050575;28;20048;-71
2022/11/02 09:15:10;;;;;;;12.93;1.50;;;12.40;99.90;;;;;;5050859;28;20056;-71
2022/11/02 09:17:36;;;;;;;5.45;1.17;;;12.30;99.90;;;;;;5048042;28;20099;-71
2022/11/02 09:20:01;;;;;;;8.63;1.33;;;12.40;99.90;;;;;;5048101;28;20048;-71
2022/11/02 09:22:27;;;;;;;8.30;1.20;;;12.40;99.90;;;;;;5050771;28;20493;-71
2022/11/02 09:24:52;;;;;;;7.80;1.80;;;12.50;99.90;;;;;;5050243;28;20063;-71
2022/11/02 09:27:18;;;;;;;4.55;1.17;;;12.50;99.90;;;;;;5049392;28;20493;-71
2022/11/02 09:29:43;;;;;;;2.22;1.13;;;12.50;99.90;;;;;;5049801;28;20417;-71
2022/11/02 09:32:09;;;;;;;9.43;1.40;;;12.50;99.90;;;;;;5049389;28;20041;-71
2022/11/02 09:34:34;;;;;;;8.10;2.03;;;12.60;99.90;;;;;;5048984;28;20500;-72
2022/11/02 09:37:00;;;;;;;11.10;1.50;;;12.70;99.90;;;;;;5049612;28;20045;-72
2022/11/02 09:39:25;;;;;;;7.28;1.55;;;12.70;99.90;;;;;;5049359;28;20049;-72
2022/11/02 09:42:06;;;;;;;3.95;1.10;;;12.80;99.90;;;;;;5049408;28;20433;-71
2022/11/02 09:44:59;;;;;;;10.48;1.60;;;12.80;99.90;;;;;;5032693;28;20527;-71
2022/11/02 09:47:26;;;;;;;11.45;1.40;;;12.80;99.90;;;;;;5049022;28;20051;-72
2022/11/02 09:49:55;;;;;;;3.78;2.00;;;12.90;99.90;;;;;;5031900;28;20053;-72
2022/11/02 09:52:32;;;;;;;10.07;1.80;;;12.90;99.90;;;;;;5048505;28;20054;-69
2022/11/02 09:54:58;;;;;;;9.10;1.42;;;12.90;99.90;;;;;;5050453;28;20041;-68
2022/11/02 09:57:29;;;;;;;10.77;1.73;;;12.90;99.90;;;;;;5049416;28;20544;-68
2022/11/02 09:59:55;;;;;;;9.20;1.35;;;13.00;99.90;;;;;;5049368;28;20033;-68
2022/11/02 10:02:42;;;;;;;2.78;1.20;;;13.00;99.90;;;;;;5049491;28;20134;-67
2022/11/02 10:05:24;;;;;;;6.45;1.10;;;13.00;99.90;;;;;;5047741;28;20057;-68
2022/11/02 10:08:19;;;;;;;5.38;1.48;;;13.00;99.90;;;;;;5049848;28;20064;-67
2022/11/02 10:11:05;;;;;;;8.02;1.77;;;13.00;99.90;;;;;;5014260;28;20071;-68
2022/11/02 10:13:52;;;;;;;7.30;1.35;;;13.10;99.90;;;;;;5046650;28;20087;-68
2022/11/02 10:16:27;;;;;;;6.85;1.45;;;13.10;99.90;;;;;;5048959;28;20029;-68
2022/11/02 10:18:53;;;;;;;9.38;1.58;;;13.10;99.90;;;;;;5048225;28;20497;-69
2022/11/02 10:21:33;;;;;;;7.85;1.35;;;13.10;99.90;;;;;;5050036;28;20489;-69
2022/11/02 10:24:16;;;;;;;4.38;1.58;;;13.20;99.90;;;;;;5049905;28;20120;-69
2022/11/02 10:26:42;;;;;;;5.32;2.22;;;13.20;99.90;;;;;;5050265;28;20048;-69
2022/11/02 10:29:25;;;;;;;4.60;1.48;;;13.30;99.90;;;;;;5049060;28;20044;-68
2022/11/02 10:31:53;;;;;;;6.30;1.27;;;13.30;99.90;;;;;;5046961;28;20094;-68
2022/11/02 10:34:27;;;;;;;6.25;1.27;;;13.30;99.90;;;;;;5048731;28;20402;-66
2022/11/02 10:37:22;;;;;;;9.18;1.10;;;13.30;99.90;;;;;;5048397;28;20056;-68
2022/11/02 10:40:04;;;;;;;7.68;1.80;;;13.30;99.90;;;;;;5050127;28;20044;-69
2022/11/02 10:43:04;;;;;;;6.78;1.30;;;13.30;99.90;;;;;;5030647;28;20044;-68
2022/11/02 10:46:01;;;;;;;8.95;1.40;;;13.30;99.90;;;;;;5045445;28;20040;-70
2022/11/02 10:48:48;;;;;;;7.43;1.80;;;13.30;99.90;;;;;;5047712;28;20048;-71
2022/11/02 10:51:16;;;;;;;5.55;1.77;;;13.30;99.90;;;;;;5044149;28;20057;-72
2022/11/02 10:53:48;;;;;;;5.88;1.40;;;13.30;99.90;;;;;;5031624;28;20489;-72
2022/11/02 10:56:18;;;;;;;6.78;1.40;;;13.30;99.90;;;;;;5048281;28;20059;-70
2022/11/02 10:59:17;;;;;;;7.60;1.60;;;13.30;99.90;;;;;;5047588;28;20076;-70
2022/11/02 11:01:55;;;;;;;5.10;1.75;;;13.30;99.90;;;;;;5046110;28;20417;-70
2022/11/02 11:04:24;;;;;;;6.75;1.40;;;13.40;99.90;;;;;;5048376;28;20389;-70
2022/11/02 11:06:50;;;;;;;7.88;1.55;;;13.40;99.90;;;;;;5052180;28;20037;-70
2022/11/02 11:09:24;;;;;;;6.93;2.42;;;13.40;99.90;;;;;;5053218;28;20656;-69
2022/11/02 11:12:00;;;;;;;7.40;1.55;;;13.50;99.90;;;;;;5052196;28;20512;-70
2022/11/02 11:14:54;;;;;;;8.68;1.42;;;13.50;99.90;;;;;;5052938;28;20045;-73
2022/11/02 11:17:23;;;;;;;8.93;1.50;;;13.60;99.90;;;;;;5048868;28;20056;-73
2022/11/02 11:19:50;;;;;;;8.75;1.25;;;13.70;99.90;;;;;;5051918;28;20041;-70
2022/11/02 11:22:29;;;;;;;8.00;1.30;;;13.70;99.90;;;;;;5053166;28;20122;-70
2022/11/02 11:25:12;;;;;;;6.97;1.20;;;13.70;99.90;;;;;;5052287;28;20162;-70
2022/11/02 11:27:46;;;;;;;3.03;1.05;;;13.70;99.90;;;;;;5051935;28;20493;-70
2022/11/02 11:30:34;;;;;;;5.05;1.23;;;13.70;99.90;;;;;;5052823;28;20045;-70
2022/11/02 11:33:03;;;;;;;5.78;1.20;;;13.70;99.90;;;;;;5052981;28;20037;-70
2022/11/02 11:35:34;;;;;;;11.23;1.70;;;13.70;99.90;;;;;;5049625;28;20039;-70
2022/11/02 11:38:05;;;;;;;6.63;1.10;;;13.70;99.90;;;;;;5050962;28;20037;-70
2022/11/02 11:40:36;;;;;;;9.43;1.58;;;13.70;99.90;;;;;;5052305;28;20485;-69
2022/11/02 11:43:03;;;;;;;5.40;1.70;;;13.70;99.90;;;;;;5052146;28;20400;-69
2022/11/02 11:45:32;;;;;;;3.03;0.95;;;13.70;99.90;;;;;;5047835;28;20555;-70
2022/11/02 11:48:17;;;;;;;8.93;1.27;;;13.70;99.90;;;;;;5052569;28;20056;-71
2022/11/02 11:50:47;;;;;;;6.95;1.38;;;13.60;99.90;;;;;;5052550;28;20421;-69
2022/11/02 11:53:19;;;;;;;8.27;1.80;;;13.60;99.90;;;;;;5051147;28;20045;-65
2022/11/02 11:55:50;;;;;;;7.00;1.30;;;13.60;99.90;;;;;;5052364;28;20037;-66
2022/11/02 11:58:24;;;;;;;11.52;1.42;;;13.60;99.90;;;;;;5052464;28;20036;-65
2022/11/02 12:01:15;;;;;;;10.77;1.42;;;13.60;99.90;;;;;;5052751;28;20049;-65
2022/11/02 12:04:01;;;;;;;7.82;1.40;;;13.50;99.90;;;;;;5052184;28;20057;-65
2022/11/02 12:06:53;;;;;;;107.65;10.10;;;13.50;99.90;;;;;;5050523;28;20078;-65
2022/11/02 12:09:42;;;;;;;61.97;5.55;;;13.50;99.90;;;;;;5052019;28;20091;-65
2022/11/02 12:12:07;;;;;;;20.40;1.88;;;13.50;99.90;;;;;;5051651;28;20055;-65
2022/11/02 12:14:58;;;;;;;6.55;1.33;;;13.50;99.90;;;;;;5051916;28;20045;-65
2022/11/02 12:18:01;;;;;;;7.28;1.13;;;13.50;99.90;;;;;;5051817;28;20052;-65
2022/11/02 12:20:59;;;;;;;3.85;1.20;;;13.50;99.90;;;;;;5050875;28;20059;-65
2022/11/02 12:23:37;;;;;;;37.70;5.05;;;13.50;99.90;;;;;;5051644;28;20041;-65
2022/11/02 12:26:22;;;;;;;67.32;7.38;;;13.70;99.90;;;;;;5051812;28;20045;-65
2022/11/02 12:29:18;;;;;;;16.42;2.50;;;13.90;99.90;;;;;;5051607;28;20045;-65
2022/11/02 12:32:17;;;;;;;8.45;1.20;;;13.90;99.90;;;;;;5051736;28;20053;-65
2022/11/02 12:35:20;;;;;;;12.63;2.95;;;13.70;99.90;;;;;;5051091;28;20055;-65
2022/11/02 12:38:20;;;;;;;5.43;1.08;;;13.70;99.90;;;;;;5051714;28;20037;-68
2022/11/02 12:41:03;;;;;;;8.05;1.17;;;13.70;99.90;;;;;;5051688;28;20037;-68
2022/11/02 12:43:36;;;;;;;6.53;1.15;;;13.60;99.90;;;;;;5051300;28;20037;-65
2022/11/02 12:46:25;;;;;;;9.15;1.48;;;13.60;99.90;;;;;;5050874;28;20045;-66
2022/11/02 12:49:07;;;;;;;11.60;1.60;;;13.60;99.90;;;;;;5050857;28;20154;-65
2022/11/02 12:51:41;;;;;;;10.38;1.33;;;13.60;99.90;;;;;;5050191;28;20040;-65
2022/11/02 12:54:11;;;;;;;5.63;1.67;;;13.60;99.90;;;;;;5051322;28;20037;-65
2022/11/02 12:56:46;;;;;;;10.02;1.95;;;13.50;99.90;;;;;;5051103;28;20048;-66
2022/11/02 12:59:30;;;;;;;5.97;1.40;;;13.50;99.90;;;;;;5051134;28;20406;-65
2022/11/02 13:02:04;;;;;;;11.75;1.42;;;13.50;99.90;;;;;;5051532;28;20036;-65
2022/11/02 13:04:43;;;;;;;6.97;1.20;;;13.50;99.90;;;;;;5049819;28;20112;-66
2022/11/02 13:07:13;;;;;;;11.95;1.23;;;13.50;99.90;;;;;;5050756;28;20495;-66
2022/11/02 13:09:48;;;;;;;8.55;1.85;;;13.60;99.90;;;;;;5050750;28;20049;-65
2022/11/02 13:12:17;;;;;;;5.63;1.40;;;13.70;99.90;;;;;;5050477;28;20094;-66
2022/11/02 13:14:45;;;;;;;6.80;1.23;;;13.70;99.90;;;;;;5050121;28;20039;-66
2022/11/02 13:17:46;;;;;;;5.25;1.23;;;13.80;99.90;;;;;;5051218;28;20045;-65
2022/11/02 13:20:12;;;;;;;3.25;1.10;;;13.90;99.90;;;;;;5050427;28;20374;-65